Time;durP1;ratioP1;P1;durP2;ratioP2;P2;SDS_P1;SDS_P2;PMS_P1;PMS_P2;Temp;Humidity;BMP_temperature;BMP_pressure;BME280_temperature;BME280_humidity;BME280_pressure;Samples;Min_cycle;Max_cycle;Signal;HPM_P1;HPM_P2
2022/04/16 00:02:06;;;;;;;1.33;0.50;;;13.40;99.90;;;;;;6209016;23;20212;-90
2022/04/16 00:04:41;;;;;;;0.90;0.50;;;13.00;99.90;;;;;;6209442;23;20192;-90
2022/04/16 00:07:16;;;;;;;0.50;0.40;;;13.10;99.90;;;;;;6210469;23;20165;-92
2022/04/16 00:09:48;;;;;;;0.60;0.50;;;13.20;99.30;;;;;;6200530;23;20172;-92
2022/04/16 00:12:20;;;;;;;0.77;0.50;;;13.10;99.90;;;;;;6210815;23;20177;-91
2022/04/16 00:14:52;;;;;;;0.60;0.47;;;13.00;99.90;;;;;;6210059;23;20169;-90
2022/04/16 00:17:24;;;;;;;0.63;0.50;;;13.10;99.90;;;;;;6192288;23;20663;-92
2022/04/16 00:19:56;;;;;;;0.40;0.40;;;12.90;99.90;;;;;;6193992;23;20207;-92
2022/04/16 00:22:29;;;;;;;0.40;0.40;;;12.90;99.90;;;;;;6211734;23;20172;-92
2022/04/16 00:25:01;;;;;;;1.03;0.40;;;13.00;99.50;;;;;;6212348;23;20193;-92
2022/04/16 00:27:32;;;;;;;0.30;0.30;;;12.90;99.90;;;;;;6203137;23;20595;-93
2022/04/16 00:30:03;;;;;;;0.60;0.40;;;13.00;99.90;;;;;;6194719;23;20181;-93
2022/04/16 00:32:35;;;;;;;0.63;0.53;;;13.10;99.90;;;;;;6194008;23;20180;-93
2022/04/16 00:35:07;;;;;;;1.53;0.47;;;13.10;99.90;;;;;;6192116;23;20177;-93
2022/04/16 00:37:41;;;;;;;0.50;0.50;;;13.10;99.90;;;;;;6191012;23;20170;-93
2022/04/16 00:40:13;;;;;;;0.67;0.43;;;13.30;99.90;;;;;;6192896;23;20208;-93
2022/04/16 00:42:46;;;;;;;1.00;0.57;;;12.80;99.70;;;;;;6191559;23;20173;-91
2022/04/16 00:45:17;;;;;;;0.93;0.90;;;12.70;99.90;;;;;;6192597;23;20455;-90
2022/04/16 00:47:49;;;;;;;0.50;0.40;;;12.90;99.90;;;;;;6192089;23;20624;-92
2022/04/16 00:50:20;;;;;;;0.60;0.50;;;12.80;99.90;;;;;;6196143;23;20201;-92
2022/04/16 00:52:54;;;;;;;0.50;0.50;;;12.90;98.80;;;;;;6194026;23;20176;-92
2022/04/16 00:55:29;;;;;;;0.47;0.40;;;12.90;99.00;;;;;;6206551;23;20176;-92
2022/04/16 00:58:04;;;;;;;1.80;0.50;;;12.70;99.90;;;;;;6207623;23;20177;-93
2022/04/16 01:00:46;;;;;;;0.40;0.40;;;12.30;99.90;;;;;;6208835;23;20169;-92
2022/04/16 01:03:19;;;;;;;0.53;0.50;;;12.40;99.90;;;;;;6199501;23;20172;-92
2022/04/16 01:05:51;;;;;;;1.43;0.43;;;12.50;99.90;;;;;;6194520;23;20192;-92
2022/04/16 01:08:25;;;;;;;0.60;0.40;;;12.20;99.90;;;;;;6192697;23;20177;-92
2022/04/16 01:10:57;;;;;;;0.60;0.60;;;12.40;98.80;;;;;;6196564;23;20231;-93
2022/04/16 01:13:29;;;;;;;1.43;0.50;;;12.60;99.10;;;;;;6199175;23;20573;-92
2022/04/16 01:16:01;;;;;;;0.57;0.43;;;12.60;99.90;;;;;;6207939;23;20173;-92
2022/04/16 01:18:37;;;;;;;0.57;0.50;;;12.60;99.30;;;;;;6199428;23;20588;-92
2022/04/16 01:21:09;;;;;;;0.40;0.40;;;12.90;98.40;;;;;;6193881;23;20611;-92
2022/04/16 01:23:42;;;;;;;0.70;0.60;;;13.30;97.60;;;;;;6193430;23;20200;-91
2022/04/16 01:26:17;;;;;;;0.60;0.30;;;13.30;98.70;;;;;;6197551;23;20165;-92
2022/04/16 01:28:56;;;;;;;0.40;0.40;;;13.20;98.80;;;;;;6207538;23;20177;-91
2022/04/16 01:31:30;;;;;;;0.70;0.50;;;12.90;99.80;;;;;;6205265;23;20177;-91
2022/04/16 01:34:03;;;;;;;0.30;0.30;;;12.30;99.90;;;;;;6203452;23;20185;-91
2022/04/16 01:36:37;;;;;;;1.10;0.50;;;12.00;98.90;;;;;;6200302;23;20178;-91
2022/04/16 01:39:11;;;;;;;0.30;0.30;;;12.10;98.90;;;;;;6204592;23;20220;-92
2022/04/16 01:41:42;;;;;;;0.50;0.40;;;12.00;98.70;;;;;;6208785;23;20185;-90
2022/04/16 01:44:16;;;;;;;0.47;0.40;;;11.90;97.20;;;;;;6213730;23;20172;-91
2022/04/16 01:46:48;;;;;;;0.50;0.40;;;11.80;96.70;;;;;;6214494;23;20200;-91
2022/04/16 01:49:21;;;;;;;1.37;0.50;;;11.70;98.80;;;;;;6211722;23;20245;-89
2022/04/16 01:51:53;;;;;;;0.30;0.30;;;11.50;96.70;;;;;;6213643;23;20204;-92
2022/04/16 01:54:33;;;;;;;0.60;0.50;;;11.40;98.00;;;;;;6200036;23;20215;-90
2022/04/16 02:02:35;;;;;;;0.30;0.30;;;10.60;98.80;;;;;;6156393;23;20209;-92
2022/04/16 02:05:08;;;;;;;0.40;0.30;;;10.40;98.20;;;;;;6134789;23;21332;-88
2022/04/16 02:07:44;;;;;;;0.90;0.40;;;10.30;99.10;;;;;;6153510;23;20186;-90
2022/04/16 02:10:17;;;;;;;0.43;0.43;;;10.20;98.10;;;;;;6152838;23;20163;-91
2022/04/16 02:12:50;;;;;;;0.30;0.30;;;10.00;97.90;;;;;;6152705;23;20170;-90
2022/04/16 02:23:22;;;;;;;0.33;0.33;;;9.70;98.60;;;;;;6146213;23;20194;-91
2022/04/16 02:25:56;;;;;;;0.40;0.30;;;9.60;99.90;;;;;;6157337;23;20186;-90
2022/04/16 02:28:31;;;;;;;0.40;0.40;;;9.40;99.90;;;;;;6153027;23;20164;-91
2022/04/16 02:36:40;;;;;;;0.40;0.40;;;9.30;99.90;;;;;;6122000;23;20218;-91
2022/04/16 02:39:14;;;;;;;1.20;0.40;;;9.20;99.90;;;;;;6123621;23;20198;-91
2022/04/16 02:41:49;;;;;;;2.00;0.40;;;9.20;99.90;;;;;;6100677;23;20186;-90
2022/04/16 02:47:13;;;;;;;1.60;0.47;;;9.00;99.90;;;;;;6117736;23;20167;-91
2022/04/16 02:49:46;;;;;;;0.50;0.50;;;9.00;99.90;;;;;;6118474;23;20201;-90
2022/04/16 02:52:22;;;;;;;0.30;0.30;;;8.90;99.90;;;;;;6119651;23;20181;-91
2022/04/16 02:54:54;;;;;;;0.60;0.53;;;8.90;99.90;;;;;;6118003;23;20171;-90
2022/04/16 02:57:31;;;;;;;0.40;0.40;;;8.90;99.90;;;;;;6117360;23;20181;-91
2022/04/16 03:00:09;;;;;;;0.97;0.63;;;8.80;99.90;;;;;;6119335;23;20202;-91
2022/04/16 03:05:22;;;;;;;0.60;0.60;;;8.80;99.90;;;;;;6185364;23;20203;-92
2022/04/16 03:07:53;;;;;;;0.80;0.70;;;8.70;99.90;;;;;;6210994;23;20165;-89
2022/04/16 03:10:25;;;;;;;0.70;0.60;;;8.70;99.90;;;;;;6210752;23;20173;-90
2022/04/16 03:13:00;;;;;;;1.10;0.70;;;8.80;99.90;;;;;;6210428;23;20177;-91
2022/04/16 03:18:34;;;;;;;2.23;0.80;;;8.70;99.90;;;;;;6205741;23;20169;-91
2022/04/16 03:21:11;;;;;;;0.90;0.60;;;8.80;99.90;;;;;;6204485;23;20193;-90
2022/04/16 03:29:35;;;;;;;1.23;0.67;;;8.70;99.90;;;;;;6206951;23;20189;-90
2022/04/16 03:32:07;;;;;;;0.97;0.87;;;8.70;99.90;;;;;;6206038;23;20220;-91
2022/04/16 03:34:39;;;;;;;1.20;0.70;;;8.70;99.90;;;;;;6208236;23;20503;-91
2022/04/16 03:37:12;;;;;;;1.23;0.90;;;8.70;99.90;;;;;;6212307;23;20169;-93
2022/04/16 03:39:45;;;;;;;1.00;0.90;;;8.70;99.90;;;;;;6212736;23;20267;-92
2022/04/16 03:42:20;;;;;;;1.23;1.00;;;8.70;99.90;;;;;;6212434;23;20167;-91
2022/04/16 03:44:56;;;;;;;1.60;0.90;;;8.60;99.90;;;;;;6206793;23;20217;-91
2022/04/16 03:47:30;;;;;;;1.30;0.93;;;8.60;99.90;;;;;;6208955;23;20228;-90
2022/04/16 03:50:02;;;;;;;1.43;1.27;;;8.60;99.90;;;;;;6208012;23;20216;-91
2022/04/16 03:52:42;;;;;;;1.70;1.33;;;8.50;99.90;;;;;;6205552;23;20184;-92
2022/04/16 04:00:55;;;;;;;1.17;0.73;;;8.40;99.90;;;;;;6205002;23;20200;-90
2022/04/16 04:03:28;;;;;;;1.83;0.90;;;7.70;99.90;;;;;;6204492;23;20176;-91
2022/04/16 04:06:01;;;;;;;1.07;0.90;;;7.30;99.90;;;;;;6204760;23;20192;-90
2022/04/16 04:08:33;;;;;;;1.10;0.90;;;7.10;99.90;;;;;;6205953;23;20195;-90
2022/04/16 04:11:06;;;;;;;1.13;0.93;;;7.10;99.90;;;;;;6206600;23;20197;-91
2022/04/16 04:13:38;;;;;;;1.07;0.87;;;7.00;99.90;;;;;;6194728;23;20177;-90
2022/04/16 04:16:11;;;;;;;1.27;1.00;;;7.00;99.90;;;;;;6194657;23;20172;-89
2022/04/16 04:18:42;;;;;;;1.43;0.83;;;6.90;99.90;;;;;;6194822;23;20647;-89
2022/04/16 04:21:14;;;;;;;0.70;0.70;;;6.80;99.90;;;;;;6194317;23;20245;-90
2022/04/16 04:23:46;;;;;;;1.00;0.90;;;6.80;99.90;;;;;;6195618;23;20226;-92
2022/04/16 04:26:25;;;;;;;1.50;1.03;;;6.80;99.90;;;;;;6194281;23;20184;-91
2022/04/16 04:29:00;;;;;;;1.03;0.90;;;6.70;99.90;;;;;;6193916;23;20226;-92
2022/04/16 04:31:37;;;;;;;0.97;0.90;;;6.80;99.90;;;;;;6194065;23;20177;-91
2022/04/16 04:34:09;;;;;;;1.10;0.93;;;6.80;99.90;;;;;;6194955;23;20232;-90
2022/04/16 04:36:49;;;;;;;1.57;0.83;;;6.80;99.90;;;;;;6200401;23;20210;-91
2022/04/16 04:39:27;;;;;;;1.73;1.03;;;6.80;99.90;;;;;;6198917;23;20258;-91
2022/04/16 04:41:58;;;;;;;2.23;0.90;;;6.80;99.90;;;;;;6208011;23;20181;-91
2022/04/16 04:44:32;;;;;;;1.20;1.10;;;6.80;99.90;;;;;;6160749;23;20213;-91
2022/04/16 04:47:06;;;;;;;2.50;0.97;;;6.90;99.90;;;;;;6125474;23;20330;-90
2022/04/16 04:49:39;;;;;;;1.20;0.90;;;6.90;99.90;;;;;;6150294;23;20183;-89
2022/04/16 04:52:11;;;;;;;1.17;0.90;;;6.90;99.90;;;;;;6152015;23;20213;-90
2022/04/16 04:54:42;;;;;;;1.43;1.00;;;6.90;99.90;;;;;;6151388;23;20210;-90
2022/04/16 04:57:13;;;;;;;1.30;1.00;;;6.90;99.90;;;;;;6147759;23;20192;-91
2022/04/16 04:59:45;;;;;;;1.00;0.87;;;6.90;99.90;;;;;;6144687;23;20182;-90
2022/04/16 05:02:18;;;;;;;0.90;0.90;;;6.70;99.90;;;;;;6137293;23;20190;-90
2022/04/16 05:04:49;;;;;;;1.20;0.80;;;6.60;99.90;;;;;;6137928;23;20238;-90
2022/04/16 05:07:22;;;;;;;1.27;1.00;;;6.60;99.90;;;;;;6131899;23;20179;-90
2022/04/16 05:09:54;;;;;;;2.47;1.03;;;6.50;99.90;;;;;;6140589;23;20181;-90
2022/04/16 05:12:26;;;;;;;1.40;0.73;;;6.40;99.90;;;;;;6138207;23;20212;-91
2022/04/16 05:14:58;;;;;;;1.20;1.10;;;6.30;99.90;;;;;;6130721;23;20182;-91
2022/04/16 05:17:36;;;;;;;1.17;0.90;;;6.20;99.90;;;;;;6130837;23;20185;-91
2022/04/16 05:20:10;;;;;;;1.03;0.93;;;6.10;99.90;;;;;;6134537;23;20171;-90
2022/04/16 05:22:41;;;;;;;2.73;0.80;;;6.00;99.90;;;;;;6106300;23;20621;-91
2022/04/16 05:25:12;;;;;;;1.20;0.90;;;5.90;99.90;;;;;;6130554;23;20178;-91
2022/04/16 05:27:46;;;;;;;2.43;1.10;;;5.80;99.90;;;;;;6130701;23;20655;-89
2022/04/16 05:30:29;;;;;;;0.80;0.80;;;5.70;99.90;;;;;;6131003;23;20178;-90
2022/04/16 05:33:16;;;;;;;1.20;1.10;;;5.70;99.90;;;;;;6134329;23;20249;-91
2022/04/16 05:35:46;;;;;;;1.37;0.90;;;5.60;99.90;;;;;;6133440;23;20178;-91
2022/04/16 05:38:18;;;;;;;1.17;0.97;;;5.60;99.90;;;;;;6130279;23;20328;-91
2022/04/16 05:40:50;;;;;;;0.73;0.73;;;5.50;99.90;;;;;;6111290;23;20194;-91
2022/04/16 05:43:21;;;;;;;1.50;1.20;;;5.50;99.90;;;;;;6137651;23;20185;-91
2022/04/16 05:45:52;;;;;;;0.90;0.90;;;5.40;99.90;;;;;;6148145;23;20189;-92
2022/04/16 05:48:26;;;;;;;2.10;1.03;;;5.30;99.90;;;;;;6126394;23;20163;-91
2022/04/16 05:50:59;;;;;;;1.07;1.00;;;5.30;99.90;;;;;;6116353;23;20233;-90
2022/04/16 05:53:32;;;;;;;1.47;1.10;;;5.20;99.90;;;;;;6138222;23;20178;-91
2022/04/16 05:56:07;;;;;;;2.23;1.10;;;5.20;99.90;;;;;;6121858;23;20179;-90
2022/04/16 05:58:40;;;;;;;1.20;0.83;;;5.20;99.90;;;;;;6113963;23;20201;-90
2022/04/16 06:01:15;;;;;;;1.33;1.00;;;5.20;99.90;;;;;;6133501;23;20217;-90
2022/04/16 06:03:50;;;;;;;1.13;0.93;;;5.20;99.90;;;;;;6139752;23;20174;-90
2022/04/16 06:06:21;;;;;;;1.50;1.17;;;5.20;99.90;;;;;;6106513;23;20184;-90
2022/04/16 06:08:53;;;;;;;1.93;1.10;;;5.10;99.90;;;;;;6107709;23;20167;-90
2022/04/16 06:11:28;;;;;;;1.63;1.10;;;5.20;99.90;;;;;;6132611;23;20166;-91
2022/04/16 06:14:00;;;;;;;1.27;1.03;;;5.10;99.90;;;;;;6131893;23;20209;-91
2022/04/16 06:16:31;;;;;;;2.20;0.77;;;5.10;99.90;;;;;;6132896;23;20242;-90
2022/04/16 06:19:07;;;;;;;1.20;1.10;;;5.00;99.90;;;;;;6131200;23;20179;-91
2022/04/16 06:21:38;;;;;;;2.00;0.90;;;5.00;99.90;;;;;;6131566;23;20198;-90
2022/04/16 06:24:10;;;;;;;1.87;1.07;;;5.00;99.90;;;;;;6132109;23;20186;-90
2022/04/16 06:26:42;;;;;;;0.80;0.80;;;4.90;99.90;;;;;;6107369;23;20190;-91
2022/04/16 06:29:13;;;;;;;1.10;0.80;;;4.90;99.90;;;;;;6107068;23;20182;-90
2022/04/16 06:31:44;;;;;;;0.87;0.80;;;4.90;99.90;;;;;;6132790;23;20198;-90
2022/04/16 06:34:19;;;;;;;1.77;1.00;;;4.90;99.90;;;;;;6106557;23;20179;-90
2022/04/16 06:36:51;;;;;;;0.83;0.83;;;4.80;99.90;;;;;;6146458;23;20225;-91
2022/04/16 06:39:23;;;;;;;0.97;0.80;;;4.70;99.90;;;;;;6136473;23;20166;-90
2022/04/16 06:41:54;;;;;;;1.27;0.67;;;4.70;99.90;;;;;;6109632;23;20264;-90
2022/04/16 06:44:26;;;;;;;0.90;0.77;;;4.60;99.90;;;;;;6134438;23;20170;-90
2022/04/16 06:46:57;;;;;;;0.70;0.70;;;4.60;99.90;;;;;;6131927;23;20186;-90
2022/04/16 06:49:47;;;;;;;0.63;0.63;;;4.60;99.90;;;;;;6139041;23;20182;-90
2022/04/16 06:52:20;;;;;;;0.90;0.80;;;4.60;99.90;;;;;;6134222;23;20657;-92
2022/04/16 06:54:52;;;;;;;0.60;0.60;;;4.50;99.90;;;;;;6135146;23;20174;-91
2022/04/16 06:57:23;;;;;;;0.93;0.77;;;4.50;99.90;;;;;;6129778;23;20179;-91
2022/04/16 06:59:55;;;;;;;0.87;0.50;;;4.50;99.90;;;;;;6132990;23;20202;-90
2022/04/16 07:02:27;;;;;;;0.73;0.70;;;4.50;99.90;;;;;;6135823;23;20234;-90
2022/04/16 07:05:02;;;;;;;1.00;0.63;;;4.40;99.90;;;;;;6137804;23;20166;-90
2022/04/16 07:07:34;;;;;;;2.03;0.60;;;4.40;99.90;;;;;;6152081;23;20162;-91
2022/04/16 07:10:07;;;;;;;0.73;0.63;;;4.40;99.90;;;;;;6151153;23;20171;-90
2022/04/16 07:12:40;;;;;;;0.60;0.60;;;4.30;99.90;;;;;;6138047;23;20178;-90
2022/04/16 07:15:14;;;;;;;0.80;0.73;;;4.30;99.90;;;;;;6132323;23;20261;-91
2022/04/16 07:17:46;;;;;;;0.90;0.77;;;4.20;99.90;;;;;;6133950;23;20265;-91
2022/04/16 07:20:20;;;;;;;0.70;0.67;;;4.10;99.90;;;;;;6132158;23;20214;-91
2022/04/16 07:22:52;;;;;;;0.50;0.50;;;4.10;99.90;;;;;;6131457;23;20206;-90
2022/04/16 07:25:23;;;;;;;0.70;0.53;;;4.10;99.90;;;;;;6131600;23;20640;-90
2022/04/16 07:27:54;;;;;;;1.57;0.60;;;4.10;99.90;;;;;;6130714;23;20182;-91
2022/04/16 07:30:27;;;;;;;1.50;0.60;;;4.10;99.90;;;;;;6130900;23;20178;-91
2022/04/16 07:32:58;;;;;;;0.60;0.60;;;4.00;99.90;;;;;;6132292;23;20209;-91
2022/04/16 07:35:32;;;;;;;1.30;0.90;;;3.90;99.90;;;;;;6136147;23;20274;-91
2022/04/16 07:38:04;;;;;;;0.70;0.60;;;3.90;99.90;;;;;;6130530;23;20197;-91
2022/04/16 07:40:36;;;;;;;1.27;1.10;;;3.90;99.90;;;;;;6133481;23;20230;-90
2022/04/16 07:43:08;;;;;;;0.70;0.60;;;3.90;99.90;;;;;;6132142;23;20218;-90
2022/04/16 07:45:39;;;;;;;0.73;0.57;;;3.90;99.90;;;;;;6134680;23;20182;-90
2022/04/16 07:48:12;;;;;;;0.87;0.70;;;3.80;99.90;;;;;;6106130;23;20213;-90
2022/04/16 07:50:46;;;;;;;2.83;0.53;;;3.70;99.90;;;;;;6132468;23;20167;-90
2022/04/16 07:53:17;;;;;;;0.80;0.80;;;3.70;99.90;;;;;;6131532;23;20178;-90
2022/04/16 07:55:51;;;;;;;1.03;0.73;;;3.70;99.90;;;;;;6132328;23;20222;-91
2022/04/16 07:58:22;;;;;;;0.73;0.53;;;3.60;99.90;;;;;;6130559;23;20265;-90
2022/04/16 08:00:53;;;;;;;1.00;0.80;;;3.60;99.90;;;;;;6132065;23;20223;-90
2022/04/16 08:03:26;;;;;;;0.87;0.70;;;3.60;99.90;;;;;;6130891;23;20277;-90
2022/04/16 08:06:00;;;;;;;2.10;0.60;;;3.60;99.90;;;;;;6143553;23;20174;-90
2022/04/16 08:08:32;;;;;;;0.77;0.77;;;3.50;99.90;;;;;;6142620;23;20186;-91
2022/04/16 08:11:04;;;;;;;0.83;0.70;;;3.40;99.90;;;;;;6144424;23;20278;-88
2022/04/16 08:13:36;;;;;;;0.87;0.80;;;3.40;99.90;;;;;;6126204;23;20214;-88
2022/04/16 08:16:09;;;;;;;0.90;0.90;;;3.40;99.90;;;;;;6152003;23;20185;-90
2022/04/16 08:18:40;;;;;;;1.13;0.70;;;3.40;99.90;;;;;;6151321;23;20178;-90
2022/04/16 08:21:14;;;;;;;0.50;0.50;;;3.30;99.90;;;;;;6148513;23;20174;-91
2022/04/16 08:23:55;;;;;;;0.87;0.60;;;3.30;99.90;;;;;;6134292;23;20253;-91
2022/04/16 08:26:27;;;;;;;1.83;0.70;;;3.30;99.90;;;;;;6133305;23;20174;-90
2022/04/16 08:28:59;;;;;;;0.80;0.60;;;3.20;99.90;;;;;;6106702;23;20514;-90
2022/04/16 08:31:31;;;;;;;0.63;0.63;;;3.20;99.90;;;;;;6135846;23;20189;-90
2022/04/16 08:34:03;;;;;;;0.67;0.67;;;3.10;99.90;;;;;;6111842;23;20170;-91
2022/04/16 08:36:39;;;;;;;1.17;0.70;;;3.10;99.90;;;;;;6143247;23;20178;-90
2022/04/16 08:39:12;;;;;;;0.80;0.53;;;3.00;99.90;;;;;;6133984;23;20229;-90
2022/04/16 08:41:45;;;;;;;0.63;0.63;;;2.90;99.90;;;;;;6130989;23;20422;-91
2022/04/16 08:44:19;;;;;;;0.60;0.60;;;2.90;99.90;;;;;;6130722;23;20226;-90
2022/04/16 08:46:51;;;;;;;0.73;0.70;;;2.80;99.90;;;;;;6130742;23;20189;-90
2022/04/16 08:49:25;;;;;;;0.90;0.80;;;2.80;99.90;;;;;;6104627;23;20174;-90
2022/04/16 08:51:59;;;;;;;0.87;0.63;;;2.70;99.90;;;;;;6131176;23;20205;-91
2022/04/16 08:54:30;;;;;;;1.40;1.00;;;2.70;99.90;;;;;;6130745;23;20201;-90
2022/04/16 08:57:03;;;;;;;1.33;1.10;;;2.70;99.90;;;;;;6105722;23;20624;-91
2022/04/16 08:59:38;;;;;;;0.70;0.70;;;2.70;99.90;;;;;;6134151;23;20206;-90
2022/04/16 09:02:10;;;;;;;1.17;1.00;;;2.60;99.90;;;;;;6133194;23;20249;-91
2022/04/16 09:04:41;;;;;;;1.63;1.10;;;2.60;99.90;;;;;;6131421;23;20483;-91
2022/04/16 09:07:15;;;;;;;1.00;0.83;;;2.50;99.90;;;;;;6131242;23;20260;-91
2022/04/16 09:09:47;;;;;;;1.77;0.80;;;2.50;99.90;;;;;;6131874;23;20204;-91
2022/04/16 09:12:18;;;;;;;1.03;0.80;;;2.50;99.90;;;;;;6131482;23;20703;-91
2022/04/16 09:14:49;;;;;;;1.00;0.90;;;2.50;99.90;;;;;;6134604;23;20175;-91
2022/04/16 09:17:21;;;;;;;1.23;1.00;;;2.50;99.90;;;;;;6152973;23;20179;-91
2022/04/16 09:19:57;;;;;;;1.10;0.80;;;2.40;99.90;;;;;;6128550;23;20165;-92
2022/04/16 09:22:40;;;;;;;0.80;0.80;;;2.40;99.90;;;;;;6139883;23;20175;-90
2022/04/16 09:25:18;;;;;;;0.80;0.67;;;2.40;99.90;;;;;;6134904;23;20496;-90
2022/04/16 09:27:51;;;;;;;0.80;0.80;;;2.30;99.90;;;;;;6142815;23;20186;-91
2022/04/16 09:30:28;;;;;;;1.00;0.70;;;2.30;99.90;;;;;;6134659;23;20178;-92
2022/04/16 09:33:00;;;;;;;0.90;0.70;;;2.30;99.90;;;;;;6137118;23;20572;-91
2022/04/16 09:35:33;;;;;;;0.67;0.63;;;2.30;99.90;;;;;;6135055;23;20206;-91
2022/04/16 09:38:15;;;;;;;1.10;0.90;;;2.20;99.90;;;;;;6135025;23;20183;-91
2022/04/16 09:40:49;;;;;;;0.70;0.70;;;2.20;99.90;;;;;;6108387;23;20182;-91
2022/04/16 09:43:21;;;;;;;1.20;0.87;;;2.20;99.90;;;;;;6132677;23;20271;-91
2022/04/16 09:45:53;;;;;;;1.07;0.80;;;2.20;99.90;;;;;;6108912;23;20235;-91
2022/04/16 09:48:25;;;;;;;1.33;0.90;;;2.10;99.90;;;;;;6132612;23;20171;-91
2022/04/16 09:50:58;;;;;;;1.10;0.90;;;2.10;99.90;;;;;;6140543;23;20185;-92
2022/04/16 09:53:35;;;;;;;1.33;0.97;;;2.00;99.90;;;;;;6132833;23;20178;-91
2022/04/16 09:56:11;;;;;;;1.33;0.70;;;2.00;99.90;;;;;;6132759;23;20225;-91
2022/04/16 09:58:49;;;;;;;1.57;1.00;;;2.00;99.90;;;;;;6132455;23;20233;-91
2022/04/16 10:01:23;;;;;;;0.80;0.80;;;2.00;99.90;;;;;;6133331;23;20273;-91
2022/04/16 10:03:54;;;;;;;1.27;1.00;;;2.00;99.90;;;;;;6133390;23;20217;-92
2022/04/16 10:06:26;;;;;;;1.40;1.10;;;2.00;99.90;;;;;;6133512;23;20234;-92
2022/04/16 10:09:13;;;;;;;1.10;0.97;;;1.90;99.90;;;;;;6145892;23;20230;-90
2022/04/16 10:14:45;;;;;;;1.20;1.10;;;1.80;99.90;;;;;;6136963;23;20178;-92
2022/04/16 10:17:30;;;;;;;1.20;1.10;;;1.80;99.90;;;;;;6137479;23;20178;-92
2022/04/16 10:20:09;;;;;;;1.30;1.20;;;1.90;99.90;;;;;;6134659;23;20257;-92
2022/04/16 10:22:42;;;;;;;1.73;1.20;;;1.80;99.90;;;;;;6132597;23;20621;-91
2022/04/16 10:25:16;;;;;;;1.80;1.00;;;1.80;99.90;;;;;;6107271;23;20224;-91
2022/04/16 10:27:47;;;;;;;1.10;0.90;;;1.80;99.90;;;;;;6131399;23;20181;-92
2022/04/16 10:30:19;;;;;;;0.83;0.77;;;1.80;99.90;;;;;;6132921;23;20174;-92
2022/04/16 10:32:51;;;;;;;1.17;1.00;;;1.80;99.90;;;;;;6132114;23;20209;-92
2022/04/16 10:35:27;;;;;;;1.80;1.27;;;1.80;99.90;;;;;;6132892;23;20170;-91
2022/04/16 10:37:59;;;;;;;1.00;0.90;;;1.70;99.90;;;;;;6132453;23;20186;-90
2022/04/16 10:40:32;;;;;;;0.83;0.83;;;1.70;99.90;;;;;;6137356;23;20174;-91
2022/04/16 10:43:04;;;;;;;1.10;1.00;;;1.70;99.90;;;;;;6106838;23;20178;-91
2022/04/16 10:45:37;;;;;;;1.03;0.93;;;1.70;99.90;;;;;;6132284;23;20182;-91
2022/04/16 10:48:11;;;;;;;1.93;1.00;;;1.60;99.90;;;;;;6133726;23;20217;-92
2022/04/16 10:50:42;;;;;;;1.23;1.00;;;1.60;99.90;;;;;;6135925;23;20171;-92
2022/04/16 10:53:15;;;;;;;1.17;0.80;;;1.60;99.90;;;;;;6134435;23;20278;-91
2022/04/16 10:55:55;;;;;;;1.50;1.17;;;1.60;99.90;;;;;;6112885;23;20171;-91
2022/04/16 10:58:33;;;;;;;1.20;0.80;;;1.60;99.90;;;;;;6132028;23;20648;-93
2022/04/16 11:01:09;;;;;;;1.50;1.10;;;1.60;99.90;;;;;;6132864;23;20183;-92
2022/04/16 11:03:49;;;;;;;1.00;0.80;;;1.60;99.90;;;;;;6132211;23;20205;-91
2022/04/16 11:06:21;;;;;;;1.40;1.17;;;1.60;99.90;;;;;;6131669;23;20204;-91
2022/04/16 11:08:56;;;;;;;0.97;0.87;;;1.60;99.90;;;;;;6106784;23;20185;-91
2022/04/16 11:11:30;;;;;;;1.50;0.97;;;1.50;99.90;;;;;;6136729;23;20180;-92
2022/04/16 11:14:03;;;;;;;3.10;0.77;;;1.50;99.90;;;;;;6136476;23;20171;-92
2022/04/16 11:16:34;;;;;;;1.13;0.90;;;1.50;99.90;;;;;;6135241;23;20170;-91
2022/04/16 11:19:15;;;;;;;1.23;0.77;;;1.50;99.90;;;;;;6132199;23;20183;-92
2022/04/16 11:21:46;;;;;;;1.30;1.13;;;1.50;99.90;;;;;;6133150;23;20175;-92
2022/04/16 11:24:18;;;;;;;1.27;1.00;;;1.50;99.90;;;;;;6106490;23;20199;-91
2022/04/16 11:35:59;;;;;;;1.67;1.23;;;1.40;99.90;;;;;;6128509;23;20253;-92
2022/04/16 11:38:32;;;;;;;1.80;1.20;;;1.40;99.90;;;;;;6132282;23;20641;-92
2022/04/16 11:41:05;;;;;;;1.43;1.10;;;1.40;99.90;;;;;;6133550;23;20174;-92
2022/04/16 11:43:48;;;;;;;1.50;1.30;;;1.40;99.90;;;;;;6106644;23;20226;-92
2022/04/16 11:46:22;;;;;;;2.63;1.07;;;1.40;99.90;;;;;;6133032;23;20175;-91
2022/04/16 11:48:58;;;;;;;1.93;1.20;;;1.40;99.90;;;;;;6130694;23;20208;-92
2022/04/16 11:51:34;;;;;;;1.80;1.40;;;1.40;99.90;;;;;;6131932;23;20185;-91
2022/04/16 11:54:05;;;;;;;2.67;1.20;;;1.40;99.90;;;;;;6131122;23;20178;-92
2022/04/16 11:56:38;;;;;;;1.20;1.10;;;1.30;99.90;;;;;;6131216;23;20182;-90
2022/04/16 11:59:12;;;;;;;2.37;1.47;;;1.30;99.90;;;;;;6130039;23;20174;-91
2022/04/16 12:01:43;;;;;;;1.40;1.30;;;1.30;99.90;;;;;;6107203;23;20178;-90
2022/04/16 12:04:14;;;;;;;1.23;1.07;;;1.40;99.90;;;;;;6131806;23;20382;-92
2022/04/16 12:06:47;;;;;;;1.50;1.30;;;1.40;99.90;;;;;;6131566;23;20178;-92
2022/04/16 12:09:19;;;;;;;1.40;1.30;;;1.40;99.90;;;;;;6133610;23;20202;-90
2022/04/16 12:11:56;;;;;;;2.87;1.13;;;1.40;99.90;;;;;;6144894;23;20155;-92
2022/04/16 12:14:32;;;;;;;1.60;1.10;;;1.40;99.90;;;;;;6148503;23;20253;-92
2022/04/16 12:17:03;;;;;;;1.73;1.40;;;1.40;99.90;;;;;;6138243;23;20178;-91
2022/04/16 12:19:36;;;;;;;1.77;1.63;;;1.30;99.90;;;;;;6135383;23;20194;-91
2022/04/16 12:22:18;;;;;;;1.37;1.20;;;1.40;99.90;;;;;;6132484;23;20178;-91
2022/04/16 12:24:50;;;;;;;2.03;1.40;;;1.40;99.90;;;;;;6131349;23;20201;-91
2022/04/16 12:27:27;;;;;;;1.50;1.10;;;1.40;99.90;;;;;;6130157;23;20178;-92
2022/04/16 12:30:03;;;;;;;1.00;0.90;;;1.40;99.90;;;;;;6130616;23;20518;-91
2022/04/16 12:32:36;;;;;;;1.43;1.33;;;1.40;99.90;;;;;;6130637;23;20186;-93
2022/04/16 12:35:08;;;;;;;1.37;0.83;;;1.40;99.90;;;;;;6130677;23;20230;-91
2022/04/16 12:37:39;;;;;;;1.20;1.10;;;1.40;99.90;;;;;;6130144;23;20194;-91
2022/04/16 12:40:12;;;;;;;1.03;0.93;;;1.50;99.90;;;;;;6130890;23;20198;-91
2022/04/16 12:42:49;;;;;;;1.13;1.03;;;1.50;99.90;;;;;;6106483;23;20178;-91
2022/04/16 12:45:23;;;;;;;2.97;1.10;;;1.60;99.90;;;;;;6130173;23;20277;-91
2022/04/16 12:47:55;;;;;;;1.40;1.10;;;1.60;99.90;;;;;;6130208;23;20198;-91
2022/04/16 12:50:26;;;;;;;1.20;0.90;;;1.60;99.90;;;;;;6131173;23;20667;-91
2022/04/16 12:52:59;;;;;;;1.87;1.23;;;1.70;99.90;;;;;;6130920;23;20178;-91
2022/04/16 12:55:37;;;;;;;1.27;1.07;;;1.70;99.90;;;;;;6131670;23;20229;-91
2022/04/16 12:58:09;;;;;;;1.10;1.00;;;1.80;99.90;;;;;;6104233;23;20178;-91
2022/04/16 13:00:43;;;;;;;1.70;1.20;;;1.80;99.90;;;;;;6106886;23;20167;-91
2022/04/16 13:03:15;;;;;;;1.10;1.00;;;1.80;99.90;;;;;;6131918;23;20765;-91
2022/04/16 13:05:46;;;;;;;1.27;1.10;;;1.80;99.90;;;;;;6131903;23;20198;-91
2022/04/16 13:08:17;;;;;;;2.60;1.13;;;1.90;99.90;;;;;;6130737;23;20648;-91
2022/04/16 13:10:52;;;;;;;1.80;1.23;;;1.90;99.90;;;;;;6132148;23;20190;-91
2022/04/16 13:13:23;;;;;;;1.77;1.20;;;1.90;99.90;;;;;;6131296;23;20561;-92
2022/04/16 13:16:00;;;;;;;1.10;1.00;;;1.90;99.90;;;;;;6132354;23;20249;-92
2022/04/16 13:18:33;;;;;;;2.10;1.10;;;1.90;99.90;;;;;;6130401;23;20197;-91
2022/04/16 13:21:06;;;;;;;1.80;0.73;;;2.00;99.90;;;;;;6106601;23;20178;-91
2022/04/16 13:23:38;;;;;;;1.33;0.90;;;2.00;99.90;;;;;;6131743;23;20234;-92
2022/04/16 13:26:11;;;;;;;1.03;0.93;;;2.00;99.90;;;;;;6131439;23;20653;-92
2022/04/16 13:28:42;;;;;;;1.10;0.90;;;2.00;99.90;;;;;;6130265;23;20186;-91
2022/04/16 13:31:22;;;;;;;1.50;1.10;;;2.10;99.90;;;;;;6135143;23;20179;-92
2022/04/16 13:33:57;;;;;;;1.37;0.80;;;2.10;99.90;;;;;;6112635;23;20173;-92
2022/04/16 13:36:28;;;;;;;2.03;1.03;;;2.10;99.90;;;;;;6134549;23;20692;-92
2022/04/16 13:39:01;;;;;;;2.07;0.93;;;2.10;99.90;;;;;;6144271;23;20178;-90
2022/04/16 13:41:39;;;;;;;1.27;1.17;;;2.10;99.90;;;;;;6151495;23;20190;-91
2022/04/16 13:44:12;;;;;;;2.23;1.23;;;2.10;99.90;;;;;;6151567;23;20166;-91
2022/04/16 13:46:46;;;;;;;0.83;0.83;;;2.10;99.90;;;;;;6149795;23;20221;-91
2022/04/16 13:49:17;;;;;;;1.30;1.13;;;2.10;99.90;;;;;;6150208;23;20181;-90
2022/04/16 13:51:48;;;;;;;1.47;1.20;;;2.20;99.90;;;;;;6146644;23;20182;-91
2022/04/16 13:54:20;;;;;;;1.90;1.43;;;2.10;99.90;;;;;;6136163;23;20257;-90
2022/04/16 13:56:51;;;;;;;1.53;1.23;;;2.10;99.90;;;;;;6135473;23;20181;-91
2022/04/16 13:59:23;;;;;;;1.47;1.37;;;2.10;99.90;;;;;;6132209;23;20233;-91
2022/04/16 14:02:13;;;;;;;1.53;1.30;;;2.20;99.90;;;;;;6135894;23;20252;-91
2022/04/16 14:07:33;;;;;;;1.60;1.30;;;2.30;99.90;;;;;;6132305;23;20184;-91
2022/04/16 14:10:06;;;;;;;2.07;1.53;;;2.30;99.90;;;;;;6132763;23;20204;-90
2022/04/16 14:12:37;;;;;;;1.70;1.60;;;2.40;99.90;;;;;;6142579;23;20210;-91
2022/04/16 14:15:09;;;;;;;1.50;1.40;;;2.50;99.90;;;;;;6144501;23;20186;-91
2022/04/16 14:17:43;;;;;;;1.93;1.40;;;2.50;99.90;;;;;;6132769;23;20181;-92
2022/04/16 14:20:16;;;;;;;1.70;1.40;;;2.60;99.90;;;;;;6133815;23;20618;-91
2022/04/16 14:22:48;;;;;;;1.90;1.30;;;2.60;99.90;;;;;;6132607;23;20170;-90